createdAt,value
2023-03-19T00:01:32.320Z,9.45
2023-03-19T00:04:03.933Z,9.40
2023-03-19T00:06:32.036Z,9.39
2023-03-19T00:09:00.354Z,9.38
2023-03-19T00:11:28.426Z,9.37
2023-03-19T00:14:02.154Z,9.34
2023-03-19T00:16:30.272Z,9.28
2023-03-19T00:18:58.645Z,9.16
2023-03-19T00:21:26.641Z,9.25
2023-03-19T00:23:57.499Z,9.38
2023-03-19T00:26:25.824Z,9.37
2023-03-19T00:28:53.817Z,9.43
2023-03-19T00:31:23.586Z,9.42
2023-03-19T00:33:54.073Z,9.41
2023-03-19T00:36:23.571Z,9.44
2023-03-19T00:38:52.403Z,9.46
2023-03-19T00:41:24.177Z,9.52
2023-03-19T00:43:54.848Z,9.54
2023-03-19T00:46:24.325Z,9.54
2023-03-19T00:48:55.560Z,9.53
2023-03-19T00:51:24.537Z,9.56
2023-03-19T00:53:54.074Z,9.57
2023-03-19T00:56:22.215Z,9.57
2023-03-19T00:58:51.106Z,9.53
2023-03-19T01:01:23.219Z,9.58
2023-03-19T01:03:52.756Z,9.53
2023-03-19T01:06:23.484Z,9.48
2023-03-19T01:08:51.481Z,9.56
2023-03-19T01:11:23.328Z,9.53
2023-03-19T01:13:52.240Z,9.55
2023-03-19T01:16:21.312Z,9.59
2023-03-19T01:18:49.171Z,9.55
2023-03-19T01:21:18.741Z,9.61
2023-03-19T01:23:46.632Z,9.63
2023-03-19T01:26:16.702Z,9.64
2023-03-19T01:28:45.210Z,9.58
2023-03-19T01:31:20.697Z,9.68
2023-03-19T01:33:56.769Z,9.63
2023-03-19T01:36:27.319Z,9.66
2023-03-19T01:38:56.200Z,9.66
2023-03-19T01:41:25.657Z,9.66
2023-03-19T01:43:55.997Z,9.60
2023-03-19T01:46:29.140Z,9.67
2023-03-19T01:48:59.943Z,9.63
2023-03-19T01:51:35.844Z,9.66
2023-03-19T01:54:08.905Z,9.63
2023-03-19T01:56:39.892Z,9.47
2023-03-19T01:59:13.664Z,9.63
2023-03-19T02:01:49.675Z,9.67
2023-03-19T02:04:18.103Z,9.54
2023-03-19T02:06:51.349Z,9.53
2023-03-19T02:09:20.673Z,9.61
2023-03-19T02:11:48.878Z,9.60
2023-03-19T02:14:16.892Z,9.57
2023-03-19T02:16:46.074Z,9.58
2023-03-19T02:19:18.752Z,9.60
2023-03-19T02:21:48.408Z,9.57
2023-03-19T02:24:22.395Z,9.54
2023-03-19T02:26:52.088Z,9.52
2023-03-19T02:29:20.027Z,9.52
2023-03-19T02:31:48.160Z,9.54
2023-03-19T02:34:35.071Z,9.50
2023-03-19T02:37:06.784Z,9.50
2023-03-19T02:39:42.773Z,9.49
2023-03-19T02:42:14.472Z,9.43
2023-03-19T02:44:42.733Z,9.39
2023-03-19T02:47:10.837Z,9.48
2023-03-19T02:49:40.092Z,9.47
2023-03-19T02:52:11.534Z,9.39
2023-03-19T02:54:39.442Z,9.42
2023-03-19T02:57:07.586Z,9.46
2023-03-19T02:59:37.241Z,9.47
2023-03-19T03:02:07.002Z,9.43
2023-03-19T03:04:37.144Z,9.47
2023-03-19T03:07:06.196Z,9.41
2023-03-19T03:09:36.516Z,9.41
2023-03-19T03:12:04.917Z,9.44
2023-03-19T03:14:35.298Z,9.46
2023-03-19T03:17:04.955Z,9.40
2023-03-19T03:19:32.944Z,9.40
2023-03-19T03:22:01.448Z,9.48
2023-03-19T03:24:29.541Z,9.44
2023-03-19T03:26:57.422Z,9.43
2023-03-19T03:29:25.469Z,9.45
2023-03-19T03:31:53.423Z,9.33
2023-03-19T03:34:22.784Z,9.39
2023-03-19T03:36:50.918Z,9.39
2023-03-19T03:39:19.084Z,9.41
2023-03-19T03:41:51.655Z,9.37
2023-03-19T03:44:19.944Z,9.26
2023-03-19T03:46:49.352Z,9.33
2023-03-19T03:49:17.717Z,9.30
2023-03-19T03:51:47.127Z,9.28
2023-03-19T03:54:15.085Z,9.30
2023-03-19T03:56:46.050Z,9.30
2023-03-19T03:59:14.012Z,9.36
2023-03-19T04:01:44.908Z,9.35
2023-03-19T04:04:13.014Z,9.34
2023-03-19T04:06:40.885Z,9.31
2023-03-19T04:09:10.334Z,9.31
2023-03-19T04:11:42.233Z,9.34
2023-03-19T04:14:10.748Z,9.33
2023-03-19T04:16:39.361Z,9.37
2023-03-19T04:19:08.460Z,9.38
2023-03-19T04:21:36.487Z,9.38
2023-03-19T04:24:04.433Z,9.38
2023-03-19T04:26:33.644Z,9.38
2023-03-19T04:29:01.679Z,9.37
2023-03-19T04:31:30.839Z,9.42
2023-03-19T04:33:58.708Z,9.40
2023-03-19T04:36:26.750Z,9.41
2023-03-19T04:38:54.702Z,9.43
2023-03-19T04:41:23.707Z,9.38
2023-03-19T04:43:52.984Z,9.31
2023-03-19T04:46:22.036Z,9.19
2023-03-19T04:48:50.645Z,9.10
2023-03-19T04:51:21.189Z,8.99
2023-03-19T04:53:50.579Z,8.88
2023-03-19T04:56:18.441Z,8.68
2023-03-19T04:58:47.136Z,8.59
2023-03-19T05:01:17.271Z,8.65
2023-03-19T05:03:45.608Z,8.62
2023-03-19T05:06:13.760Z,8.41
2023-03-19T05:08:41.765Z,8.42
2023-03-19T05:11:09.960Z,8.56
2023-03-19T05:13:37.840Z,8.49
2023-03-19T05:16:06.736Z,8.40
2023-03-19T05:18:36.142Z,8.31
2023-03-19T05:21:04.869Z,8.41
2023-03-19T05:23:32.872Z,8.23
2023-03-19T05:26:01.147Z,8.15
2023-03-19T05:28:29.911Z,8.10
2023-03-19T05:30:58.888Z,8.04
2023-03-19T05:33:41.810Z,8.07
2023-03-19T05:36:09.888Z,8.01
2023-03-19T05:38:39.317Z,7.81
2023-03-19T05:41:38.327Z,8.02
2023-03-19T05:44:18.536Z,7.99
2023-03-19T05:47:01.900Z,7.86
2023-03-19T05:49:31.483Z,7.66
2023-03-19T05:52:06.867Z,7.63
2023-03-19T05:54:36.470Z,7.69
2023-03-19T05:57:06.840Z,7.64
2023-03-19T05:59:36.285Z,7.85
2023-03-19T06:02:05.418Z,7.67
2023-03-19T06:04:35.818Z,7.60
2023-03-19T06:07:06.149Z,7.61
2023-03-19T06:09:34.222Z,7.47
2023-03-19T06:12:04.081Z,7.59
2023-03-19T06:14:35.325Z,7.65
2023-03-19T06:17:03.240Z,7.73
2023-03-19T06:19:31.507Z,7.85
2023-03-19T06:22:00.734Z,7.98
2023-03-19T06:24:31.013Z,8.16
2023-03-19T06:26:58.903Z,8.29
2023-03-19T06:29:27.186Z,8.49
2023-03-19T06:31:57.551Z,8.57
2023-03-19T06:34:26.504Z,8.62
2023-03-19T06:36:54.946Z,8.67
2023-03-19T06:39:24.554Z,8.65
2023-03-19T06:41:52.731Z,8.61
2023-03-19T06:44:20.869Z,8.47
2023-03-19T06:46:48.933Z,8.63
2023-03-19T06:49:17.399Z,8.55
2023-03-19T06:51:45.562Z,8.50
2023-03-19T06:54:13.587Z,8.49
2023-03-19T06:56:42.989Z,8.61
2023-03-19T06:59:13.151Z,8.64
2023-03-19T07:01:42.790Z,8.92
2023-03-19T07:04:11.287Z,9.76
2023-03-19T07:06:39.395Z,10.21
2023-03-19T07:09:07.315Z,10.38
2023-03-19T07:11:35.999Z,10.64
2023-03-19T07:14:05.401Z,11.15
2023-03-19T07:16:33.725Z,10.94
2023-03-19T07:19:01.873Z,11.47
2023-03-19T07:21:30.118Z,11.71
2023-03-19T07:23:57.990Z,12.02
2023-03-19T07:26:25.777Z,11.71
2023-03-19T07:28:53.802Z,12.22
2023-03-19T07:31:23.274Z,12.17
2023-03-19T07:33:51.374Z,12.42
2023-03-19T07:36:19.496Z,12.63
2023-03-19T07:38:47.655Z,12.88
2023-03-19T07:41:15.715Z,13.16
2023-03-19T07:43:43.768Z,13.08
2023-03-19T07:46:11.852Z,13.70
2023-03-19T07:48:41.264Z,13.97
2023-03-19T07:51:09.205Z,13.65
2023-03-19T07:53:37.174Z,13.57
2023-03-19T07:56:05.545Z,13.75
2023-03-19T07:58:33.621Z,14.46
2023-03-19T08:01:01.698Z,14.25
2023-03-19T08:03:29.660Z,14.36
2023-03-19T08:05:59.232Z,13.82
2023-03-19T08:08:27.419Z,13.60
2023-03-19T08:10:55.730Z,13.89
2023-03-19T08:13:23.694Z,13.23
2023-03-19T08:15:54.498Z,13.27
2023-03-19T08:18:24.035Z,12.86
2023-03-19T08:20:52.530Z,12.68
2023-03-19T08:23:21.951Z,12.20
2023-03-19T08:25:51.903Z,11.89
2023-03-19T08:28:21.809Z,11.52
2023-03-19T08:30:50.897Z,11.37
2023-03-19T08:33:20.300Z,10.97
2023-03-19T08:35:50.474Z,11.04
2023-03-19T08:38:21.232Z,10.90
2023-03-19T08:40:50.586Z,10.96
2023-03-19T08:43:18.726Z,11.41
2023-03-19T08:45:46.858Z,12.06
2023-03-19T08:48:17.510Z,13.33
2023-03-19T08:50:45.865Z,14.11
2023-03-19T08:53:13.930Z,13.95
2023-03-19T08:55:42.661Z,13.43
2023-03-19T08:58:14.672Z,12.85
2023-03-19T09:00:42.657Z,12.53
2023-03-19T09:03:10.678Z,12.18
2023-03-19T09:05:38.800Z,11.77
2023-03-19T09:08:07.822Z,11.68
2023-03-19T09:10:37.162Z,11.86
2023-03-19T09:13:05.464Z,11.92
2023-03-19T09:15:35.360Z,11.83
2023-03-19T09:18:03.615Z,11.57
2023-03-19T09:20:31.735Z,11.54
2023-03-19T09:23:00.129Z,11.61
2023-03-19T09:25:28.064Z,11.90
2023-03-19T09:27:56.225Z,12.13
2023-03-19T09:30:24.197Z,12.60
2023-03-19T09:33:27.200Z,12.85
2023-03-19T09:35:55.618Z,13.58
2023-03-19T09:38:23.947Z,13.32
2023-03-19T09:41:05.945Z,13.43
2023-03-19T09:43:59.055Z,13.37
2023-03-19T09:46:34.345Z,12.99
2023-03-19T09:49:12.198Z,13.02
2023-03-19T09:51:45.494Z,12.63
2023-03-19T09:54:26.785Z,12.75
2023-03-19T09:56:57.391Z,12.73
2023-03-19T09:59:33.791Z,12.73
2023-03-19T10:02:32.843Z,12.82
2023-03-19T10:05:16.910Z,12.83
2023-03-19T10:08:12.190Z,12.65
2023-03-19T10:10:56.764Z,13.39
2023-03-19T10:13:49.027Z,12.96
2023-03-19T10:16:26.364Z,13.00
2023-03-19T10:19:00.153Z,13.10
2023-03-19T10:21:35.455Z,12.91
2023-03-19T10:24:09.145Z,12.47
2023-03-19T10:26:41.118Z,12.34
2023-03-19T10:29:11.095Z,12.30
2023-03-19T10:31:45.390Z,12.36
2023-03-19T10:34:31.251Z,12.49
2023-03-19T10:37:03.802Z,12.54
2023-03-19T10:39:37.686Z,12.58
2023-03-19T10:42:20.145Z,12.71
2023-03-19T10:44:52.406Z,12.53
2023-03-19T10:47:22.723Z,12.78
2023-03-19T10:49:51.978Z,12.72
2023-03-19T10:52:25.539Z,12.67
2023-03-19T10:54:57.613Z,12.63
2023-03-19T10:57:28.657Z,12.90
2023-03-19T10:59:57.046Z,13.17
2023-03-19T11:02:31.178Z,13.56
2023-03-19T11:05:20.418Z,14.14
2023-03-19T11:07:52.477Z,14.44
2023-03-19T11:10:21.357Z,14.17
2023-03-19T11:12:54.436Z,14.63
2023-03-19T11:15:24.584Z,14.66
2023-03-19T11:17:58.869Z,14.40
2023-03-19T11:20:31.721Z,14.37
2023-03-19T11:23:04.148Z,14.54
2023-03-19T11:25:37.555Z,14.53
2023-03-19T11:28:10.615Z,13.92
2023-03-19T11:30:44.426Z,14.29
2023-03-19T11:33:50.606Z,14.89
2023-03-19T11:36:25.614Z,14.19
2023-03-19T11:39:04.344Z,14.04
2023-03-19T11:41:48.443Z,13.98
2023-03-19T11:44:23.830Z,14.03
2023-03-19T11:47:01.723Z,14.23
2023-03-19T11:50:04.866Z,15.11
2023-03-19T11:52:41.721Z,15.39
2023-03-19T11:55:26.737Z,15.39
2023-03-19T11:58:07.100Z,14.80
2023-03-19T12:00:42.628Z,14.28
2023-03-19T12:04:08.185Z,13.49
2023-03-19T12:06:51.497Z,13.01
2023-03-19T12:09:27.741Z,12.85
2023-03-19T12:12:08.221Z,12.97
2023-03-19T12:14:51.085Z,13.08
2023-03-19T12:17:30.492Z,13.11
2023-03-19T12:20:20.342Z,12.85
2023-03-19T12:23:01.474Z,13.05
2023-03-19T12:25:43.259Z,13.02
2023-03-19T12:28:20.362Z,13.46
2023-03-19T12:30:57.272Z,13.61
2023-03-19T12:33:41.216Z,13.79
2023-03-19T12:36:14.123Z,13.91
2023-03-19T12:38:48.660Z,13.96
2023-03-19T12:41:21.878Z,14.16
2023-03-19T12:43:57.979Z,13.84
2023-03-19T12:46:31.989Z,13.40
2023-03-19T12:49:04.595Z,13.24
2023-03-19T12:51:37.833Z,13.29
2023-03-19T12:54:09.303Z,13.41
2023-03-19T12:56:43.617Z,13.35
2023-03-19T12:59:29.361Z,13.39
2023-03-19T13:02:02.831Z,13.75
2023-03-19T13:04:35.928Z,13.57
2023-03-19T13:07:11.409Z,13.14
2023-03-19T13:09:45.010Z,13.11
2023-03-19T13:12:18.716Z,13.01
2023-03-19T13:14:59.878Z,13.73
2023-03-19T13:17:37.010Z,13.93
2023-03-19T13:20:15.978Z,14.11
2023-03-19T13:22:52.676Z,14.07
2023-03-19T13:25:25.708Z,13.92
2023-03-19T13:27:55.269Z,14.75
2023-03-19T13:30:26.224Z,15.03
2023-03-19T13:33:03.371Z,14.83
2023-03-19T13:35:41.264Z,14.50
2023-03-19T13:38:19.987Z,14.25
2023-03-19T13:40:50.157Z,14.22
2023-03-19T13:43:54.680Z,13.82
2023-03-19T13:46:45.133Z,13.47
2023-03-19T13:49:30.434Z,13.59
2023-03-19T13:52:04.935Z,13.53
2023-03-19T13:54:40.547Z,13.21
2023-03-19T13:57:22.576Z,13.26
2023-03-19T13:59:51.973Z,13.04
2023-03-19T14:02:55.246Z,13.08
2023-03-19T14:05:24.683Z,12.68
2023-03-19T14:07:55.464Z,13.02
2023-03-19T14:10:28.757Z,12.68
2023-03-19T14:13:06.374Z,12.70
2023-03-19T14:15:42.294Z,12.95
2023-03-19T14:18:20.119Z,13.72
2023-03-19T14:20:59.204Z,13.09
2023-03-19T14:23:40.728Z,13.47
2023-03-19T14:26:19.163Z,13.36
2023-03-19T14:29:00.483Z,12.51
2023-03-19T14:31:38.083Z,12.17
2023-03-19T14:34:28.116Z,11.89
2023-03-19T14:37:01.831Z,11.99
2023-03-19T14:40:16.893Z,12.23
2023-03-19T14:43:05.052Z,11.57
2023-03-19T14:46:00.016Z,11.21
2023-03-19T14:48:55.856Z,11.55
2023-03-19T14:51:53.086Z,10.91
2023-03-19T14:54:32.082Z,11.47
2023-03-19T14:57:07.889Z,11.41
2023-03-19T14:59:40.438Z,11.29
2023-03-19T15:02:22.676Z,11.29
2023-03-19T15:04:51.446Z,11.30
2023-03-19T15:07:28.162Z,11.42
2023-03-19T15:09:59.680Z,11.35
2023-03-19T15:12:52.325Z,11.04
2023-03-19T15:15:42.568Z,10.83
2023-03-19T15:18:12.945Z,10.84
2023-03-19T15:20:47.291Z,10.72
2023-03-19T15:23:27.455Z,10.60
2023-03-19T15:25:58.782Z,10.67
2023-03-19T15:28:28.398Z,10.46
2023-03-19T15:31:06.372Z,10.53
2023-03-19T15:33:46.127Z,10.47
2023-03-19T15:36:19.209Z,10.57
2023-03-19T15:38:52.577Z,10.80
2023-03-19T15:41:22.027Z,10.78
2023-03-19T15:43:51.349Z,10.75
2023-03-19T15:46:22.997Z,10.66
2023-03-19T15:49:11.162Z,10.55
2023-03-19T15:51:40.787Z,10.48
2023-03-19T15:54:16.258Z,10.50
2023-03-19T15:56:44.607Z,10.54
2023-03-19T15:59:12.783Z,10.39
2023-03-19T16:01:41.239Z,10.36
2023-03-19T16:04:20.843Z,10.18
2023-03-19T16:06:50.924Z,10.22
2023-03-19T16:09:35.382Z,10.19
2023-03-19T16:12:26.920Z,10.22
2023-03-19T16:14:55.419Z,10.21
2023-03-19T16:17:35.279Z,10.25
2023-03-19T16:20:06.461Z,10.19
2023-03-19T16:22:35.148Z,10.12
2023-03-19T16:25:07.893Z,10.16
2023-03-19T16:27:38.755Z,10.17
2023-03-19T16:30:21.220Z,10.19
2023-03-19T16:32:59.959Z,10.20
2023-03-19T16:35:32.471Z,10.21
2023-03-19T16:38:15.228Z,9.92
2023-03-19T16:40:47.129Z,9.91
2023-03-19T16:43:23.669Z,10.02
2023-03-19T16:45:53.440Z,9.92
2023-03-19T16:48:23.282Z,9.96
2023-03-19T16:50:51.433Z,10.15
2023-03-19T16:53:26.304Z,10.04
2023-03-19T16:55:57.712Z,10.23
2023-03-19T16:58:30.965Z,10.26
2023-03-19T17:00:59.096Z,10.25
2023-03-19T17:03:30.115Z,10.15
2023-03-19T17:05:58.439Z,10.21
2023-03-19T17:08:27.391Z,10.17
2023-03-19T17:10:57.112Z,10.11
2023-03-19T17:13:32.215Z,10.18
2023-03-19T17:16:02.955Z,10.16
2023-03-19T17:18:33.520Z,10.14
2023-03-19T17:21:06.201Z,10.11
2023-03-19T17:23:35.532Z,10.13
2023-03-19T17:26:14.569Z,9.92
2023-03-19T17:28:43.117Z,10.07
2023-03-19T17:31:31.578Z,10.09
2023-03-19T17:34:07.643Z,10.03
2023-03-19T17:36:38.074Z,10.01
2023-03-19T17:39:09.260Z,10.01
2023-03-19T17:41:40.532Z,10.05
2023-03-19T17:44:08.713Z,10.01
2023-03-19T17:46:39.919Z,9.89
2023-03-19T17:49:13.489Z,9.86
2023-03-19T17:51:41.801Z,9.92
2023-03-19T17:54:13.030Z,9.78
2023-03-19T17:56:44.030Z,9.81
2023-03-19T17:59:15.353Z,9.70
2023-03-19T18:01:44.520Z,9.89
2023-03-19T18:04:15.069Z,9.81
2023-03-19T18:06:48.642Z,9.78
2023-03-19T18:09:21.348Z,9.76
2023-03-19T18:11:51.427Z,9.81
2023-03-19T18:14:19.906Z,9.72
2023-03-19T18:16:48.608Z,9.70
2023-03-19T18:19:31.061Z,9.71
2023-03-19T18:22:00.501Z,9.70
2023-03-19T18:24:31.452Z,9.62
2023-03-19T18:27:03.907Z,9.58
2023-03-19T18:29:31.875Z,9.58
2023-03-19T18:32:03.520Z,9.58
2023-03-19T18:34:34.190Z,9.52
2023-03-19T18:37:02.494Z,9.53
2023-03-19T18:39:31.095Z,9.45
2023-03-19T18:41:59.217Z,9.48
2023-03-19T18:44:28.595Z,9.47
2023-03-19T18:46:58.216Z,9.46
2023-03-19T18:49:32.211Z,9.35
2023-03-19T18:52:03.952Z,9.32
2023-03-19T18:54:38.999Z,9.28
2023-03-19T18:57:20.831Z,9.24
2023-03-19T18:59:50.830Z,9.12
2023-03-19T19:02:37.336Z,9.08
2023-03-19T19:05:16.579Z,9.06
2023-03-19T19:07:47.036Z,8.98
2023-03-19T19:10:16.103Z,9.04
2023-03-19T19:12:51.287Z,8.96
2023-03-19T19:15:25.340Z,9.01
2023-03-19T19:18:00.814Z,8.83
2023-03-19T19:20:30.482Z,8.80
2023-03-19T19:22:58.451Z,8.78
2023-03-19T19:25:29.912Z,8.74
2023-03-19T19:28:03.447Z,8.70
2023-03-19T19:30:33.364Z,8.63
2023-03-19T19:33:03.031Z,8.66
2023-03-19T19:35:32.235Z,8.56
2023-03-19T19:38:00.144Z,8.41
2023-03-19T19:40:31.690Z,8.52
2023-03-19T19:43:01.382Z,8.50
2023-03-19T19:45:33.497Z,8.51
2023-03-19T19:48:01.625Z,8.50
2023-03-19T19:50:31.157Z,8.51
2023-03-19T19:53:01.133Z,8.51
2023-03-19T19:55:31.250Z,8.44
2023-03-19T19:57:59.310Z,8.50
2023-03-19T20:00:29.731Z,8.54
2023-03-19T20:03:01.615Z,8.50
2023-03-19T20:05:31.736Z,8.56
2023-03-19T20:08:02.712Z,8.50
2023-03-19T20:10:31.972Z,8.38
2023-03-19T20:13:02.183Z,8.39
2023-03-19T20:15:34.129Z,8.27
2023-03-19T20:18:05.362Z,8.39
2023-03-19T20:20:34.484Z,8.24
2023-03-19T20:23:03.528Z,8.30
2023-03-19T20:25:34.195Z,8.30
2023-03-19T20:28:03.789Z,8.30
2023-03-19T20:30:34.295Z,8.27
2023-03-19T20:33:04.577Z,8.27
2023-03-19T20:35:36.377Z,8.34
2023-03-19T20:38:06.458Z,8.34
2023-03-19T20:40:38.060Z,8.34
2023-03-19T20:43:07.754Z,8.33
2023-03-19T20:45:38.106Z,8.36
2023-03-19T20:48:15.080Z,8.41
2023-03-19T20:50:43.582Z,8.35
2023-03-19T20:53:11.824Z,8.34
2023-03-19T20:55:42.135Z,8.32
2023-03-19T20:58:17.443Z,8.32
2023-03-19T21:00:45.569Z,8.34
2023-03-19T21:03:20.575Z,8.32
2023-03-19T21:05:51.685Z,8.19
2023-03-19T21:08:24.867Z,8.23
2023-03-19T21:10:53.087Z,8.20
2023-03-19T21:13:21.288Z,8.19
2023-03-19T21:15:50.316Z,8.10
2023-03-19T21:18:22.160Z,8.06
2023-03-19T21:20:54.761Z,8.02
2023-03-19T21:23:28.268Z,7.98
2023-03-19T21:25:56.753Z,7.86
2023-03-19T21:28:29.368Z,7.94
2023-03-19T21:30:57.611Z,7.88
2023-03-19T21:33:29.729Z,7.85
2023-03-19T21:35:58.964Z,7.78
2023-03-19T21:38:27.304Z,7.64
2023-03-19T21:40:58.185Z,7.63
2023-03-19T21:43:31.504Z,7.69
2023-03-19T21:46:24.271Z,7.68
2023-03-19T21:50:02.633Z,7.49
2023-03-19T21:52:42.578Z,7.56
2023-03-19T21:55:19.919Z,7.58
2023-03-19T21:57:50.793Z,7.51
2023-03-19T22:00:20.662Z,7.60
2023-03-19T22:02:50.648Z,7.46
2023-03-19T22:05:23.172Z,7.46
2023-03-19T22:07:51.983Z,7.55
2023-03-19T22:10:22.357Z,7.47
2023-03-19T22:12:51.311Z,7.49
2023-03-19T22:15:34.928Z,7.55
2023-03-19T22:18:03.641Z,7.63
2023-03-19T22:20:36.173Z,7.52
2023-03-19T22:23:04.122Z,7.60
2023-03-19T22:25:38.576Z,7.50
2023-03-19T22:28:15.582Z,7.48
2023-03-19T22:30:44.015Z,7.55
2023-03-19T22:33:15.828Z,7.51
2023-03-19T22:35:45.968Z,7.53
2023-03-19T22:38:14.366Z,7.47
2023-03-19T22:40:42.492Z,7.31
2023-03-19T22:43:19.768Z,7.42
2023-03-19T22:45:54.915Z,7.46
2023-03-19T22:48:26.083Z,7.44
2023-03-19T22:50:55.410Z,7.48
2023-03-19T22:53:27.087Z,7.46
2023-03-19T22:55:55.827Z,7.45
2023-03-19T22:58:24.254Z,7.39
2023-03-19T23:00:52.912Z,7.41
2023-03-19T23:03:24.776Z,7.46
2023-03-19T23:05:57.030Z,7.43
2023-03-19T23:08:26.097Z,7.42
2023-03-19T23:10:54.257Z,7.40
2023-03-19T23:13:23.522Z,7.42
2023-03-19T23:15:56.617Z,7.42
2023-03-19T23:18:29.914Z,7.32
2023-03-19T23:21:02.906Z,7.44
2023-03-19T23:23:38.735Z,7.41
2023-03-19T23:26:33.502Z,7.37
2023-03-19T23:29:54.435Z,7.37
2023-03-19T23:33:19.387Z,7.32
2023-03-19T23:36:38.336Z,7.36
2023-03-19T23:39:14.044Z,7.26
2023-03-19T23:41:48.251Z,7.29
2023-03-19T23:44:25.400Z,7.16
2023-03-19T23:46:54.369Z,7.17
2023-03-19T23:49:28.694Z,7.20
2023-03-19T23:51:57.393Z,7.15
2023-03-19T23:54:32.720Z,7.06
2023-03-19T23:57:05.540Z,7.18
2023-03-19T23:59:37.088Z,7.11
